sensor_id;sensor_type;location;lat;lon;timestamp;P1;durP1;ratioP1;P2;durP2;ratioP2
20324;SDS011;10320;49.482;11.256;2022-11-20T00:00:49;27.43;;;21.27;;
20324;SDS011;10320;49.482;11.256;2022-11-20T00:03:14;25.80;;;19.20;;
20324;SDS011;10320;49.482;11.256;2022-11-20T00:05:40;26.27;;;20.10;;
20324;SDS011;10320;49.482;11.256;2022-11-20T00:08:06;29.90;;;22.10;;
20324;SDS011;10320;49.482;11.256;2022-11-20T00:10:35;26.60;;;19.97;;
20324;SDS011;10320;49.482;11.256;2022-11-20T00:13:02;25.97;;;19.70;;
20324;SDS011;10320;49.482;11.256;2022-11-20T00:15:28;27.87;;;21.33;;
20324;SDS011;10320;49.482;11.256;2022-11-20T00:17:54;26.57;;;20.37;;
20324;SDS011;10320;49.482;11.256;2022-11-20T00:20:20;28.13;;;21.20;;
20324;SDS011;10320;49.482;11.256;2022-11-20T00:22:46;25.90;;;19.87;;
20324;SDS011;10320;49.482;11.256;2022-11-20T00:25:12;24.30;;;18.90;;
20324;SDS011;10320;49.482;11.256;2022-11-20T00:27:38;24.07;;;18.67;;
20324;SDS011;10320;49.482;11.256;2022-11-20T00:30:04;24.03;;;18.27;;
20324;SDS011;10320;49.482;11.256;2022-11-20T00:32:31;22.57;;;17.90;;
20324;SDS011;10320;49.482;11.256;2022-11-20T00:34:57;24.53;;;18.67;;
20324;SDS011;10320;49.482;11.256;2022-11-20T00:37:23;25.33;;;19.47;;
20324;SDS011;10320;49.482;11.256;2022-11-20T00:39:49;24.17;;;19.03;;
20324;SDS011;10320;49.482;11.256;2022-11-20T00:42:15;28.17;;;21.80;;
20324;SDS011;10320;49.482;11.256;2022-11-20T00:44:41;26.97;;;20.77;;
20324;SDS011;10320;49.482;11.256;2022-11-20T00:47:07;26.17;;;20.17;;
20324;SDS011;10320;49.482;11.256;2022-11-20T00:49:32;26.27;;;19.37;;
20324;SDS011;10320;49.482;11.256;2022-11-20T00:51:58;24.27;;;19.00;;
20324;SDS011;10320;49.482;11.256;2022-11-20T00:54:24;25.33;;;19.07;;
20324;SDS011;10320;49.482;11.256;2022-11-20T00:56:52;23.97;;;18.23;;
20324;SDS011;10320;49.482;11.256;2022-11-20T00:59:18;24.97;;;18.67;;
20324;SDS011;10320;49.482;11.256;2022-11-20T01:01:44;26.77;;;19.23;;
20324;SDS011;10320;49.482;11.256;2022-11-20T01:04:10;24.40;;;18.33;;
20324;SDS011;10320;49.482;11.256;2022-11-20T01:06:37;25.30;;;18.60;;
20324;SDS011;10320;49.482;11.256;2022-11-20T01:09:04;25.00;;;19.07;;
20324;SDS011;10320;49.482;11.256;2022-11-20T01:11:32;22.03;;;17.87;;
20324;SDS011;10320;49.482;11.256;2022-11-20T01:13:59;26.60;;;19.63;;
20324;SDS011;10320;49.482;11.256;2022-11-20T01:16:26;27.10;;;19.87;;
20324;SDS011;10320;49.482;11.256;2022-11-20T01:18:54;25.63;;;18.93;;
20324;SDS011;10320;49.482;11.256;2022-11-20T01:21:23;25.73;;;19.27;;
20324;SDS011;10320;49.482;11.256;2022-11-20T01:23:49;25.00;;;18.67;;
20324;SDS011;10320;49.482;11.256;2022-11-20T01:26:17;24.83;;;19.13;;
20324;SDS011;10320;49.482;11.256;2022-11-20T01:28:43;27.80;;;20.47;;
20324;SDS011;10320;49.482;11.256;2022-11-20T01:31:10;25.47;;;19.33;;
20324;SDS011;10320;49.482;11.256;2022-11-20T01:33:37;25.23;;;19.03;;
20324;SDS011;10320;49.482;11.256;2022-11-20T01:36:03;23.00;;;18.20;;
20324;SDS011;10320;49.482;11.256;2022-11-20T01:38:30;23.10;;;18.03;;
20324;SDS011;10320;49.482;11.256;2022-11-20T01:40:56;24.60;;;18.50;;
20324;SDS011;10320;49.482;11.256;2022-11-20T01:43:22;24.40;;;18.47;;
20324;SDS011;10320;49.482;11.256;2022-11-20T01:48:15;25.80;;;18.70;;
20324;SDS011;10320;49.482;11.256;2022-11-20T01:50:43;22.80;;;17.30;;
20324;SDS011;10320;49.482;11.256;2022-11-20T01:53:10;23.70;;;17.90;;
20324;SDS011;10320;49.482;11.256;2022-11-20T01:55:39;23.20;;;17.40;;
20324;SDS011;10320;49.482;11.256;2022-11-20T01:58:05;22.70;;;17.50;;
20324;SDS011;10320;49.482;11.256;2022-11-20T02:00:31;22.50;;;16.93;;
20324;SDS011;10320;49.482;11.256;2022-11-20T02:02:58;20.97;;;16.70;;
20324;SDS011;10320;49.482;11.256;2022-11-20T02:05:33;23.87;;;17.73;;
20324;SDS011;10320;49.482;11.256;2022-11-20T02:08:01;23.47;;;17.27;;
20324;SDS011;10320;49.482;11.256;2022-11-20T02:10:28;24.40;;;17.37;;
20324;SDS011;10320;49.482;11.256;2022-11-20T02:12:54;21.17;;;16.60;;
20324;SDS011;10320;49.482;11.256;2022-11-20T02:15:39;22.80;;;17.50;;
20324;SDS011;10320;49.482;11.256;2022-11-20T02:18:06;23.40;;;16.87;;
20324;SDS011;10320;49.482;11.256;2022-11-20T02:20:32;23.33;;;17.50;;
20324;SDS011;10320;49.482;11.256;2022-11-20T02:22:59;21.27;;;16.80;;
20324;SDS011;10320;49.482;11.256;2022-11-20T02:25:29;23.47;;;17.23;;
20324;SDS011;10320;49.482;11.256;2022-11-20T02:27:56;21.73;;;16.93;;
20324;SDS011;10320;49.482;11.256;2022-11-20T02:30:22;23.90;;;16.93;;
20324;SDS011;10320;49.482;11.256;2022-11-20T02:32:48;22.27;;;16.80;;
20324;SDS011;10320;49.482;11.256;2022-11-20T02:37:43;23.80;;;17.70;;
20324;SDS011;10320;49.482;11.256;2022-11-20T02:40:10;22.67;;;17.47;;
20324;SDS011;10320;49.482;11.256;2022-11-20T02:42:36;25.40;;;18.73;;
20324;SDS011;10320;49.482;11.256;2022-11-20T02:45:03;23.67;;;17.90;;
20324;SDS011;10320;49.482;11.256;2022-11-20T02:47:29;24.90;;;18.77;;
20324;SDS011;10320;49.482;11.256;2022-11-20T02:49:55;23.03;;;17.33;;
20324;SDS011;10320;49.482;11.256;2022-11-20T02:52:22;25.63;;;18.17;;
20324;SDS011;10320;49.482;11.256;2022-11-20T02:54:48;25.17;;;18.67;;
20324;SDS011;10320;49.482;11.256;2022-11-20T02:57:14;27.13;;;18.93;;
20324;SDS011;10320;49.482;11.256;2022-11-20T02:59:40;24.83;;;18.57;;
20324;SDS011;10320;49.482;11.256;2022-11-20T03:02:06;24.43;;;17.67;;
20324;SDS011;10320;49.482;11.256;2022-11-20T03:04:32;25.43;;;18.30;;
20324;SDS011;10320;49.482;11.256;2022-11-20T03:06:58;24.93;;;18.90;;
20324;SDS011;10320;49.482;11.256;2022-11-20T03:09:24;28.43;;;20.60;;
20324;SDS011;10320;49.482;11.256;2022-11-20T03:11:50;26.33;;;19.07;;
20324;SDS011;10320;49.482;11.256;2022-11-20T03:14:16;27.37;;;19.70;;
20324;SDS011;10320;49.482;11.256;2022-11-20T03:16:42;26.47;;;19.20;;
20324;SDS011;10320;49.482;11.256;2022-11-20T03:19:08;25.97;;;19.17;;
20324;SDS011;10320;49.482;11.256;2022-11-20T03:21:34;25.20;;;19.13;;
20324;SDS011;10320;49.482;11.256;2022-11-20T03:24:01;27.30;;;20.73;;
20324;SDS011;10320;49.482;11.256;2022-11-20T03:26:27;26.27;;;19.57;;
20324;SDS011;10320;49.482;11.256;2022-11-20T03:28:57;28.03;;;20.17;;
20324;SDS011;10320;49.482;11.256;2022-11-20T03:31:24;23.37;;;19.23;;
20324;SDS011;10320;49.482;11.256;2022-11-20T03:33:50;28.00;;;19.87;;
20324;SDS011;10320;49.482;11.256;2022-11-20T03:36:17;26.47;;;19.60;;
20324;SDS011;10320;49.482;11.256;2022-11-20T03:38:43;27.27;;;19.53;;
20324;SDS011;10320;49.482;11.256;2022-11-20T03:41:11;28.80;;;20.67;;
20324;SDS011;10320;49.482;11.256;2022-11-20T03:43:37;28.17;;;19.87;;
20324;SDS011;10320;49.482;11.256;2022-11-20T03:46:04;27.47;;;20.27;;
20324;SDS011;10320;49.482;11.256;2022-11-20T03:48:30;27.73;;;20.20;;
20324;SDS011;10320;49.482;11.256;2022-11-20T03:51:06;26.83;;;20.23;;
20324;SDS011;10320;49.482;11.256;2022-11-20T03:53:32;25.17;;;19.00;;
20324;SDS011;10320;49.482;11.256;2022-11-20T03:55:58;28.23;;;20.40;;
20324;SDS011;10320;49.482;11.256;2022-11-20T03:58:24;29.03;;;20.87;;
20324;SDS011;10320;49.482;11.256;2022-11-20T04:00:51;28.27;;;20.50;;
20324;SDS011;10320;49.482;11.256;2022-11-20T04:03:17;28.90;;;21.07;;
20324;SDS011;10320;49.482;11.256;2022-11-20T04:05:43;27.47;;;20.93;;
20324;SDS011;10320;49.482;11.256;2022-11-20T04:08:09;29.37;;;21.67;;
20324;SDS011;10320;49.482;11.256;2022-11-20T04:10:35;27.87;;;20.13;;
20324;SDS011;10320;49.482;11.256;2022-11-20T04:13:00;27.53;;;20.40;;
20324;SDS011;10320;49.482;11.256;2022-11-20T04:15:27;28.53;;;20.13;;
20324;SDS011;10320;49.482;11.256;2022-11-20T04:17:53;29.70;;;21.10;;
20324;SDS011;10320;49.482;11.256;2022-11-20T04:20:19;28.83;;;21.53;;
20324;SDS011;10320;49.482;11.256;2022-11-20T04:22:45;28.73;;;20.73;;
20324;SDS011;10320;49.482;11.256;2022-11-20T04:25:11;30.67;;;21.30;;
20324;SDS011;10320;49.482;11.256;2022-11-20T04:27:37;30.60;;;21.37;;
20324;SDS011;10320;49.482;11.256;2022-11-20T04:30:03;31.40;;;21.70;;
20324;SDS011;10320;49.482;11.256;2022-11-20T04:32:29;29.37;;;20.83;;
20324;SDS011;10320;49.482;11.256;2022-11-20T04:34:55;28.87;;;21.47;;
20324;SDS011;10320;49.482;11.256;2022-11-20T04:37:21;29.47;;;20.83;;
20324;SDS011;10320;49.482;11.256;2022-11-20T04:39:47;27.30;;;21.20;;
20324;SDS011;10320;49.482;11.256;2022-11-20T04:42:13;29.20;;;20.43;;
20324;SDS011;10320;49.482;11.256;2022-11-20T04:44:54;30.10;;;21.70;;
20324;SDS011;10320;49.482;11.256;2022-11-20T04:47:21;30.27;;;22.10;;
20324;SDS011;10320;49.482;11.256;2022-11-20T04:49:47;31.17;;;21.03;;
20324;SDS011;10320;49.482;11.256;2022-11-20T04:52:13;29.97;;;20.73;;
20324;SDS011;10320;49.482;11.256;2022-11-20T04:54:39;28.80;;;20.80;;
20324;SDS011;10320;49.482;11.256;2022-11-20T04:57:05;29.00;;;20.37;;
20324;SDS011;10320;49.482;11.256;2022-11-20T04:59:31;27.57;;;19.40;;
20324;SDS011;10320;49.482;11.256;2022-11-20T05:01:57;29.10;;;19.73;;
20324;SDS011;10320;49.482;11.256;2022-11-20T05:04:23;28.30;;;20.20;;
20324;SDS011;10320;49.482;11.256;2022-11-20T05:06:49;29.47;;;20.23;;
20324;SDS011;10320;49.482;11.256;2022-11-20T05:09:15;29.37;;;20.23;;
20324;SDS011;10320;49.482;11.256;2022-11-20T05:11:41;28.20;;;19.93;;
20324;SDS011;10320;49.482;11.256;2022-11-20T05:14:07;29.53;;;20.83;;
20324;SDS011;10320;49.482;11.256;2022-11-20T05:16:33;30.27;;;19.93;;
20324;SDS011;10320;49.482;11.256;2022-11-20T05:19:00;29.23;;;20.40;;
20324;SDS011;10320;49.482;11.256;2022-11-20T05:21:27;30.17;;;20.80;;
20324;SDS011;10320;49.482;11.256;2022-11-20T05:23:53;29.73;;;20.40;;
20324;SDS011;10320;49.482;11.256;2022-11-20T05:26:20;28.50;;;20.73;;
20324;SDS011;10320;49.482;11.256;2022-11-20T05:28:46;28.30;;;20.07;;
20324;SDS011;10320;49.482;11.256;2022-11-20T05:31:14;27.03;;;19.07;;
20324;SDS011;10320;49.482;11.256;2022-11-20T05:33:41;28.43;;;19.83;;
20324;SDS011;10320;49.482;11.256;2022-11-20T05:36:07;28.07;;;19.73;;
20324;SDS011;10320;49.482;11.256;2022-11-20T05:38:34;28.63;;;20.40;;
20324;SDS011;10320;49.482;11.256;2022-11-20T05:41:07;29.47;;;20.43;;
20324;SDS011;10320;49.482;11.256;2022-11-20T05:43:36;32.73;;;21.20;;
20324;SDS011;10320;49.482;11.256;2022-11-20T05:46:04;29.83;;;20.57;;
20324;SDS011;10320;49.482;11.256;2022-11-20T05:48:31;30.47;;;20.53;;
20324;SDS011;10320;49.482;11.256;2022-11-20T05:50:57;31.80;;;21.27;;
20324;SDS011;10320;49.482;11.256;2022-11-20T05:53:26;31.57;;;20.33;;
20324;SDS011;10320;49.482;11.256;2022-11-20T05:55:59;27.23;;;19.73;;
20324;SDS011;10320;49.482;11.256;2022-11-20T05:58:26;28.83;;;19.87;;
20324;SDS011;10320;49.482;11.256;2022-11-20T06:00:52;29.07;;;20.13;;
20324;SDS011;10320;49.482;11.256;2022-11-20T06:03:18;27.67;;;20.17;;
20324;SDS011;10320;49.482;11.256;2022-11-20T06:05:44;29.07;;;20.23;;
20324;SDS011;10320;49.482;11.256;2022-11-20T06:08:10;28.87;;;19.73;;
20324;SDS011;10320;49.482;11.256;2022-11-20T06:10:36;25.60;;;19.03;;
20324;SDS011;10320;49.482;11.256;2022-11-20T06:13:02;28.27;;;19.30;;
20324;SDS011;10320;49.482;11.256;2022-11-20T06:15:28;29.37;;;20.27;;
20324;SDS011;10320;49.482;11.256;2022-11-20T06:17:54;29.73;;;19.77;;
20324;SDS011;10320;49.482;11.256;2022-11-20T06:20:21;29.00;;;19.80;;
20324;SDS011;10320;49.482;11.256;2022-11-20T06:22:47;27.87;;;19.53;;
20324;SDS011;10320;49.482;11.256;2022-11-20T06:25:13;24.57;;;18.30;;
20324;SDS011;10320;49.482;11.256;2022-11-20T06:27:39;25.67;;;18.50;;
20324;SDS011;10320;49.482;11.256;2022-11-20T06:30:05;25.20;;;18.30;;
20324;SDS011;10320;49.482;11.256;2022-11-20T06:32:32;27.53;;;18.40;;
20324;SDS011;10320;49.482;11.256;2022-11-20T06:34:58;27.50;;;19.17;;
20324;SDS011;10320;49.482;11.256;2022-11-20T06:37:24;28.97;;;19.47;;
20324;SDS011;10320;49.482;11.256;2022-11-20T06:39:50;28.57;;;19.00;;
20324;SDS011;10320;49.482;11.256;2022-11-20T06:42:16;27.37;;;18.97;;
20324;SDS011;10320;49.482;11.256;2022-11-20T06:44:42;25.50;;;18.50;;
20324;SDS011;10320;49.482;11.256;2022-11-20T06:47:08;26.17;;;18.03;;
20324;SDS011;10320;49.482;11.256;2022-11-20T06:49:34;24.37;;;17.80;;
20324;SDS011;10320;49.482;11.256;2022-11-20T06:52:01;25.23;;;18.67;;
20324;SDS011;10320;49.482;11.256;2022-11-20T06:54:27;24.03;;;17.17;;
20324;SDS011;10320;49.482;11.256;2022-11-20T06:56:53;25.27;;;18.67;;
20324;SDS011;10320;49.482;11.256;2022-11-20T06:59:19;26.57;;;19.10;;
20324;SDS011;10320;49.482;11.256;2022-11-20T07:01:46;25.03;;;17.93;;
20324;SDS011;10320;49.482;11.256;2022-11-20T07:04:12;26.40;;;19.43;;
20324;SDS011;10320;49.482;11.256;2022-11-20T07:06:38;25.27;;;18.13;;
20324;SDS011;10320;49.482;11.256;2022-11-20T07:09:04;27.13;;;18.87;;
20324;SDS011;10320;49.482;11.256;2022-11-20T07:11:30;24.13;;;17.63;;
20324;SDS011;10320;49.482;11.256;2022-11-20T07:13:56;24.60;;;18.30;;
20324;SDS011;10320;49.482;11.256;2022-11-20T07:16:22;24.20;;;18.47;;
20324;SDS011;10320;49.482;11.256;2022-11-20T07:18:48;24.40;;;18.10;;
20324;SDS011;10320;49.482;11.256;2022-11-20T07:21:14;25.20;;;18.43;;
20324;SDS011;10320;49.482;11.256;2022-11-20T07:23:40;28.17;;;20.93;;
20324;SDS011;10320;49.482;11.256;2022-11-20T07:26:07;25.70;;;17.47;;
20324;SDS011;10320;49.482;11.256;2022-11-20T07:28:34;21.50;;;16.57;;
20324;SDS011;10320;49.482;11.256;2022-11-20T07:31:00;23.23;;;16.17;;
20324;SDS011;10320;49.482;11.256;2022-11-20T07:33:26;25.67;;;19.00;;
20324;SDS011;10320;49.482;11.256;2022-11-20T07:35:52;21.90;;;16.67;;
20324;SDS011;10320;49.482;11.256;2022-11-20T07:38:18;21.10;;;15.37;;
20324;SDS011;10320;49.482;11.256;2022-11-20T07:40:44;19.60;;;14.80;;
20324;SDS011;10320;49.482;11.256;2022-11-20T07:43:10;21.27;;;16.57;;
20324;SDS011;10320;49.482;11.256;2022-11-20T07:45:36;20.60;;;16.57;;
20324;SDS011;10320;49.482;11.256;2022-11-20T07:48:02;20.83;;;16.43;;
20324;SDS011;10320;49.482;11.256;2022-11-20T07:50:28;20.77;;;15.20;;
20324;SDS011;10320;49.482;11.256;2022-11-20T07:53:01;20.27;;;15.23;;
20324;SDS011;10320;49.482;11.256;2022-11-20T07:55:27;17.93;;;14.50;;
20324;SDS011;10320;49.482;11.256;2022-11-20T07:57:54;17.97;;;14.13;;
20324;SDS011;10320;49.482;11.256;2022-11-20T08:00:21;17.47;;;13.73;;
20324;SDS011;10320;49.482;11.256;2022-11-20T08:02:46;17.03;;;12.97;;
20324;SDS011;10320;49.482;11.256;2022-11-20T08:05:12;17.13;;;13.10;;
20324;SDS011;10320;49.482;11.256;2022-11-20T08:07:39;15.97;;;12.90;;
20324;SDS011;10320;49.482;11.256;2022-11-20T08:10:06;15.77;;;12.77;;
20324;SDS011;10320;49.482;11.256;2022-11-20T08:12:32;14.03;;;11.40;;
20324;SDS011;10320;49.482;11.256;2022-11-20T08:15:17;15.03;;;11.67;;
20324;SDS011;10320;49.482;11.256;2022-11-20T08:17:43;14.43;;;11.77;;
20324;SDS011;10320;49.482;11.256;2022-11-20T08:20:09;15.73;;;12.33;;
20324;SDS011;10320;49.482;11.256;2022-11-20T08:22:35;16.30;;;12.30;;
20324;SDS011;10320;49.482;11.256;2022-11-20T08:25:01;13.70;;;11.43;;
20324;SDS011;10320;49.482;11.256;2022-11-20T08:27:27;13.47;;;11.40;;
20324;SDS011;10320;49.482;11.256;2022-11-20T08:29:53;13.73;;;11.63;;
20324;SDS011;10320;49.482;11.256;2022-11-20T08:32:19;12.87;;;11.13;;
20324;SDS011;10320;49.482;11.256;2022-11-20T08:34:45;12.63;;;10.83;;
20324;SDS011;10320;49.482;11.256;2022-11-20T08:37:11;12.40;;;10.00;;
20324;SDS011;10320;49.482;11.256;2022-11-20T08:39:37;11.10;;;9.70;;
20324;SDS011;10320;49.482;11.256;2022-11-20T08:42:06;11.30;;;9.60;;
20324;SDS011;10320;49.482;11.256;2022-11-20T08:44:32;10.70;;;9.60;;
20324;SDS011;10320;49.482;11.256;2022-11-20T08:46:58;10.87;;;9.70;;
20324;SDS011;10320;49.482;11.256;2022-11-20T08:49:25;10.87;;;9.43;;
20324;SDS011;10320;49.482;11.256;2022-11-20T08:51:51;11.20;;;9.33;;
20324;SDS011;10320;49.482;11.256;2022-11-20T08:54:20;10.23;;;9.03;;
20324;SDS011;10320;49.482;11.256;2022-11-20T08:56:47;10.70;;;8.83;;
20324;SDS011;10320;49.482;11.256;2022-11-20T08:59:13;10.83;;;8.93;;
20324;SDS011;10320;49.482;11.256;2022-11-20T09:01:39;9.30;;;7.67;;
20324;SDS011;10320;49.482;11.256;2022-11-20T09:04:05;7.93;;;7.10;;
20324;SDS011;10320;49.482;11.256;2022-11-20T09:06:31;7.47;;;6.43;;
20324;SDS011;10320;49.482;11.256;2022-11-20T09:08:57;6.60;;;5.90;;
20324;SDS011;10320;49.482;11.256;2022-11-20T09:11:23;6.73;;;6.03;;
20324;SDS011;10320;49.482;11.256;2022-11-20T09:13:50;7.60;;;6.80;;
20324;SDS011;10320;49.482;11.256;2022-11-20T09:16:16;7.60;;;6.80;;
20324;SDS011;10320;49.482;11.256;2022-11-20T09:18:42;7.53;;;6.73;;
20324;SDS011;10320;49.482;11.256;2022-11-20T09:21:12;8.40;;;6.87;;
20324;SDS011;10320;49.482;11.256;2022-11-20T09:23:39;7.27;;;6.37;;
20324;SDS011;10320;49.482;11.256;2022-11-20T09:26:06;8.97;;;7.30;;
20324;SDS011;10320;49.482;11.256;2022-11-20T09:28:32;8.77;;;6.93;;
20324;SDS011;10320;49.482;11.256;2022-11-20T09:30:59;10.13;;;8.37;;
20324;SDS011;10320;49.482;11.256;2022-11-20T09:33:25;9.50;;;7.87;;
20324;SDS011;10320;49.482;11.256;2022-11-20T09:35:51;8.60;;;7.03;;
20324;SDS011;10320;49.482;11.256;2022-11-20T09:38:17;9.20;;;7.60;;
20324;SDS011;10320;49.482;11.256;2022-11-20T09:40:45;9.13;;;8.07;;
20324;SDS011;10320;49.482;11.256;2022-11-20T09:43:19;11.73;;;9.97;;
20324;SDS011;10320;49.482;11.256;2022-11-20T09:48:26;11.40;;;9.40;;
20324;SDS011;10320;49.482;11.256;2022-11-20T09:55:55;11.00;;;9.13;;
20324;SDS011;10320;49.482;11.256;2022-11-20T09:58:27;12.90;;;10.47;;
20324;SDS011;10320;49.482;11.256;2022-11-20T10:00:56;19.33;;;14.77;;
20324;SDS011;10320;49.482;11.256;2022-11-20T10:03:29;10.83;;;8.83;;
20324;SDS011;10320;49.482;11.256;2022-11-20T10:06:00;11.03;;;9.27;;
20324;SDS011;10320;49.482;11.256;2022-11-20T10:08:28;9.97;;;8.80;;
20324;SDS011;10320;49.482;11.256;2022-11-20T10:13:47;12.00;;;9.67;;
20324;SDS011;10320;49.482;11.256;2022-11-20T10:19:01;11.43;;;9.23;;
20324;SDS011;10320;49.482;11.256;2022-11-20T10:24:19;13.37;;;11.10;;
20324;SDS011;10320;49.482;11.256;2022-11-20T10:26:58;12.63;;;11.33;;
20324;SDS011;10320;49.482;11.256;2022-11-20T10:29:29;10.70;;;9.30;;
20324;SDS011;10320;49.482;11.256;2022-11-20T10:32:02;12.77;;;11.23;;
20324;SDS011;10320;49.482;11.256;2022-11-20T10:34:31;14.93;;;12.77;;
20324;SDS011;10320;49.482;11.256;2022-11-20T10:37:14;16.83;;;13.90;;
20324;SDS011;10320;49.482;11.256;2022-11-20T10:42:48;16.73;;;13.73;;
20324;SDS011;10320;49.482;11.256;2022-11-20T10:47:56;16.73;;;13.63;;
20324;SDS011;10320;49.482;11.256;2022-11-20T10:50:23;16.90;;;15.00;;
20324;SDS011;10320;49.482;11.256;2022-11-20T10:53:02;15.63;;;14.03;;
20324;SDS011;10320;49.482;11.256;2022-11-20T11:01:15;10.73;;;9.43;;
20324;SDS011;10320;49.482;11.256;2022-11-20T11:03:41;11.57;;;9.63;;
20324;SDS011;10320;49.482;11.256;2022-11-20T11:08:48;12.17;;;10.60;;
20324;SDS011;10320;49.482;11.256;2022-11-20T11:13:42;11.43;;;9.67;;
20324;SDS011;10320;49.482;11.256;2022-11-20T11:16:16;12.03;;;10.17;;
20324;SDS011;10320;49.482;11.256;2022-11-20T11:18:45;10.67;;;9.37;;
20324;SDS011;10320;49.482;11.256;2022-11-20T11:21:11;13.60;;;11.40;;
20324;SDS011;10320;49.482;11.256;2022-11-20T11:23:40;15.83;;;12.90;;
20324;SDS011;10320;49.482;11.256;2022-11-20T11:26:28;15.37;;;13.20;;
20324;SDS011;10320;49.482;11.256;2022-11-20T11:28:54;16.70;;;14.87;;
20324;SDS011;10320;49.482;11.256;2022-11-20T11:31:24;19.47;;;16.23;;
20324;SDS011;10320;49.482;11.256;2022-11-20T11:33:50;19.70;;;16.23;;
20324;SDS011;10320;49.482;11.256;2022-11-20T11:36:17;21.50;;;17.87;;
20324;SDS011;10320;49.482;11.256;2022-11-20T11:38:43;17.60;;;15.23;;
20324;SDS011;10320;49.482;11.256;2022-11-20T11:41:12;14.73;;;13.13;;
20324;SDS011;10320;49.482;11.256;2022-11-20T11:43:48;14.37;;;11.87;;
20324;SDS011;10320;49.482;11.256;2022-11-20T11:46:34;13.93;;;11.87;;
20324;SDS011;10320;49.482;11.256;2022-11-20T11:54:34;14.43;;;11.47;;
20324;SDS011;10320;49.482;11.256;2022-11-20T11:57:01;13.17;;;11.37;;
20324;SDS011;10320;49.482;11.256;2022-11-20T11:59:35;12.53;;;10.87;;
20324;SDS011;10320;49.482;11.256;2022-11-20T12:02:08;13.40;;;10.33;;
20324;SDS011;10320;49.482;11.256;2022-11-20T12:04:43;12.13;;;10.27;;
20324;SDS011;10320;49.482;11.256;2022-11-20T12:07:11;11.90;;;9.93;;
20324;SDS011;10320;49.482;11.256;2022-11-20T12:09:39;11.20;;;9.90;;
20324;SDS011;10320;49.482;11.256;2022-11-20T12:12:10;11.20;;;9.83;;
20324;SDS011;10320;49.482;11.256;2022-11-20T12:14:40;9.87;;;8.57;;
20324;SDS011;10320;49.482;11.256;2022-11-20T12:17:10;8.90;;;8.00;;
20324;SDS011;10320;49.482;11.256;2022-11-20T12:19:36;10.17;;;9.03;;
20324;SDS011;10320;49.482;11.256;2022-11-20T12:22:16;27.53;;;23.80;;
20324;SDS011;10320;49.482;11.256;2022-11-20T12:25:04;44.13;;;37.50;;
20324;SDS011;10320;49.482;11.256;2022-11-20T12:30:07;18.40;;;15.13;;
20324;SDS011;10320;49.482;11.256;2022-11-20T12:40:44;14.10;;;11.60;;
20324;SDS011;10320;49.482;11.256;2022-11-20T12:53:29;15.83;;;12.43;;
20324;SDS011;10320;49.482;11.256;2022-11-20T13:06:49;8.13;;;7.00;;
20324;SDS011;10320;49.482;11.256;2022-11-20T13:09:16;7.47;;;6.77;;
20324;SDS011;10320;49.482;11.256;2022-11-20T13:19:29;8.70;;;7.80;;
20324;SDS011;10320;49.482;11.256;2022-11-20T13:21:55;10.07;;;8.40;;
20324;SDS011;10320;49.482;11.256;2022-11-20T13:24:23;9.03;;;7.77;;
20324;SDS011;10320;49.482;11.256;2022-11-20T13:27:26;8.40;;;7.03;;
20324;SDS011;10320;49.482;11.256;2022-11-20T13:29:46;9.20;;;7.23;;
20324;SDS011;10320;49.482;11.256;2022-11-20T13:32:20;7.70;;;6.90;;
20324;SDS011;10320;49.482;11.256;2022-11-20T13:34:53;7.53;;;6.73;;
20324;SDS011;10320;49.482;11.256;2022-11-20T13:37:30;7.27;;;6.57;;
20324;SDS011;10320;49.482;11.256;2022-11-20T13:42:39;8.13;;;6.70;;
20324;SDS011;10320;49.482;11.256;2022-11-20T13:45:09;8.23;;;7.43;;
20324;SDS011;10320;49.482;11.256;2022-11-20T13:47:36;10.77;;;8.90;;
20324;SDS011;10320;49.482;11.256;2022-11-20T13:50:03;8.57;;;7.57;;
20324;SDS011;10320;49.482;11.256;2022-11-20T14:00:50;8.60;;;7.70;;
20324;SDS011;10320;49.482;11.256;2022-11-20T14:03:23;10.03;;;8.47;;
20324;SDS011;10320;49.482;11.256;2022-11-20T14:05:51;9.13;;;7.80;;
20324;SDS011;10320;49.482;11.256;2022-11-20T14:08:24;9.93;;;8.10;;
20324;SDS011;10320;49.482;11.256;2022-11-20T14:10:50;8.60;;;6.53;;
20324;SDS011;10320;49.482;11.256;2022-11-20T14:13:17;7.17;;;6.30;;
20324;SDS011;10320;49.482;11.256;2022-11-20T14:15:44;8.03;;;6.70;;
20324;SDS011;10320;49.482;11.256;2022-11-20T14:18:14;8.00;;;6.93;;
20324;SDS011;10320;49.482;11.256;2022-11-20T14:20:40;8.77;;;7.37;;
20324;SDS011;10320;49.482;11.256;2022-11-20T14:23:08;8.57;;;6.80;;
20324;SDS011;10320;49.482;11.256;2022-11-20T14:25:35;7.30;;;6.60;;
20324;SDS011;10320;49.482;11.256;2022-11-20T14:28:01;7.60;;;6.80;;
20324;SDS011;10320;49.482;11.256;2022-11-20T14:30:29;9.20;;;6.87;;
20324;SDS011;10320;49.482;11.256;2022-11-20T14:32:56;9.17;;;6.90;;
20324;SDS011;10320;49.482;11.256;2022-11-20T14:35:28;8.90;;;6.73;;
20324;SDS011;10320;49.482;11.256;2022-11-20T14:37:54;8.13;;;6.87;;
20324;SDS011;10320;49.482;11.256;2022-11-20T14:40:22;9.23;;;7.20;;
20324;SDS011;10320;49.482;11.256;2022-11-20T14:42:49;10.40;;;8.00;;
20324;SDS011;10320;49.482;11.256;2022-11-20T14:45:15;9.07;;;7.20;;
20324;SDS011;10320;49.482;11.256;2022-11-20T14:47:41;7.30;;;6.50;;
20324;SDS011;10320;49.482;11.256;2022-11-20T14:50:12;8.33;;;6.87;;
20324;SDS011;10320;49.482;11.256;2022-11-20T14:52:39;7.63;;;6.83;;
20324;SDS011;10320;49.482;11.256;2022-11-20T14:55:24;8.83;;;7.47;;
20324;SDS011;10320;49.482;11.256;2022-11-20T14:57:54;8.83;;;7.60;;
20324;SDS011;10320;49.482;11.256;2022-11-20T15:00:20;13.13;;;11.20;;
20324;SDS011;10320;49.482;11.256;2022-11-20T15:02:47;9.27;;;8.20;;
20324;SDS011;10320;49.482;11.256;2022-11-20T15:05:14;8.13;;;7.27;;
20324;SDS011;10320;49.482;11.256;2022-11-20T15:07:42;8.67;;;7.30;;
20324;SDS011;10320;49.482;11.256;2022-11-20T15:10:19;9.50;;;7.80;;
20324;SDS011;10320;49.482;11.256;2022-11-20T15:12:50;9.63;;;7.50;;
20324;SDS011;10320;49.482;11.256;2022-11-20T15:15:18;8.13;;;7.03;;
20324;SDS011;10320;49.482;11.256;2022-11-20T15:17:46;8.73;;;6.60;;
20324;SDS011;10320;49.482;11.256;2022-11-20T15:20:13;9.70;;;7.57;;
20324;SDS011;10320;49.482;11.256;2022-11-20T15:22:40;9.13;;;7.40;;
20324;SDS011;10320;49.482;11.256;2022-11-20T15:25:13;9.43;;;7.50;;
20324;SDS011;10320;49.482;11.256;2022-11-20T15:27:39;8.50;;;7.13;;
20324;SDS011;10320;49.482;11.256;2022-11-20T15:30:13;8.40;;;7.17;;
20324;SDS011;10320;49.482;11.256;2022-11-20T15:32:39;9.47;;;7.30;;
20324;SDS011;10320;49.482;11.256;2022-11-20T15:35:05;9.37;;;8.07;;
20324;SDS011;10320;49.482;11.256;2022-11-20T15:37:32;9.93;;;8.80;;
20324;SDS011;10320;49.482;11.256;2022-11-20T15:39:57;11.00;;;9.40;;
20324;SDS011;10320;49.482;11.256;2022-11-20T15:42:23;10.17;;;8.60;;
20324;SDS011;10320;49.482;11.256;2022-11-20T15:44:50;12.87;;;8.87;;
20324;SDS011;10320;49.482;11.256;2022-11-20T15:47:16;13.67;;;10.07;;
20324;SDS011;10320;49.482;11.256;2022-11-20T15:49:42;9.90;;;8.33;;
20324;SDS011;10320;49.482;11.256;2022-11-20T15:52:08;10.20;;;8.60;;